ADDS METAR Data INFO
IDs: Format: Raw Decoded Include TAF

Data at: 1538 UTC 25 Feb 2018

KOAJ 251456Z AUTO 23012KT 10SM CLR 25/19 A3011 RMK AO2 SLP199 T02500189 56001
KOAJ 251356Z AUTO 21011KT 10SM CLR 22/19 A3011 RMK AO2 SLP200 T02220189
KOAJ 251256Z AUTO 20011KT 10SM SCT008 19/18 A3011 RMK AO2 SLP199 T01890183
KOAJ 251230Z AUTO 19008KT 10SM FEW008 18/17 A3011 RMK AO2
KOAJ 251156Z AUTO 19006KT 10SM FEW025 17/17 A3011 RMK AO2 SLP201 T01670167 10172 20161 51005
KOAJ 251152Z AUTO 19006KT 10SM FEW025 17/17 A3011 RMK AO2
KOAJ 251056Z AUTO 19006KT 10SM BKN025 17/17 A3010 RMK AO2 SLP198 T01670167
KOAJ 250956Z AUTO 19007KT 10SM FEW025 17/16 A3010 RMK AO2 SLP196 T01670161
KOAJ 250856Z AUTO 19007KT 10SM CLR 17/17 A3010 RMK AO2 SLP198 T01670167 58014
KOAJ 250756Z AUTO 19007KT 10SM CLR 17/17 A3012 RMK AO2 SLP202 T01670167
KOAJ 250556Z AUTO 20004KT 10SM CLR 17/16 A3014 RMK AO2 SLP211 T01670161 10211 20167 53001
KOAJ 250456Z AUTO 18007KT 10SM CLR 18/17 A3013 RMK AO2 SLP208 T01780167 402720150
KOAJ 250356Z AUTO 19006KT 10SM CLR 17/17 A3015 RMK AO2 SLP212 T01720167
KOAJ 250256Z AUTO 18007KT 10SM CLR 18/17 A3014 RMK AO2 SLP211 T01830172 50005
KOAJ 250156Z AUTO 18006KT 10SM CLR 19/17 A3014 RMK AO2 SLP211 T01890167
KOAJ 250056Z AUTO 19007KT 10SM CLR 20/17 A3014 RMK AO2 SLP209 T02000167
KOAJ 242356Z AUTO 20010KT 10SM CLR 21/17 A3013 RMK AO2 SLP206 T02110167 10272 20211 53003
KOAJ 242256Z AUTO 19008KT 10SM FEW060 23/17 A3011 RMK AO2 SLP200 T02330167
KOAJ 242156Z AUTO 19006KT 10SM BKN055 BKN065 25/16 A3011 RMK AO2 SLP201 T02500156
KOAJ 242056Z AUTO 22010KT 10SM CLR 27/14 A3012 RMK AO2 SLP202 T02670144 56024
KOAJ 241956Z AUTO 22009G14KT 10SM FEW047 27/16 A3013 RMK AO2 SLP207 T02720156
KOAJ 241756Z AUTO 21007KT 10SM SCT027 SCT033 24/18 A3019 RMK AO2 SLP227 T02440178 10250 20167 56016
KOAJ 241752Z AUTO 24008KT 10SM SCT029 SCT035 25/18 A3019 RMK AO2
KOAJ 241656Z AUTO 23009KT 10SM OVC015 21/18 A3023 RMK AO2 SLP241 T02110178
KOAJ 241648Z AUTO 24009KT 10SM OVC015 21/18 A3024 RMK AO2 TSNO
KOAJ 241617Z AUTO 25011KT 10SM OVC010 21/18 A3025 RMK AO2
KOAJ 241556Z AUTO 23009KT 10SM OVC008 20/18 A3026 RMK AO2 SLP251 T02000178
KOAJ 241520Z AUTO 23011KT 10SM OVC006 19/18 A3026 RMK AO2
KOAJ 241456Z AUTO 23008KT 10SM OVC004 18/18 A3027 RMK AO2 SLP254 T01830178 51002
KOAJ 241438Z AUTO 21009KT 10SM OVC004 18/18 A3027 RMK AO2 CIG 002V008
KOAJ 241416Z AUTO 22008KT 3SM BR OVC002 18/18 A3027 RMK AO2
KOAJ 241356Z AUTO 22006KT 1 3/4SM BR OVC002 18/17 A3027 RMK AO2 VIS 1V2 1/2 SLP254 T01780172
KOAJ 241329Z AUTO 21006KT 1 3/4SM BR OVC002 17/17 A3026 RMK AO2 VIS 1 1/4V3
KOAJ 241256Z AUTO 20005KT 3SM BR OVC002 17/17 A3026 RMK AO2 SLP252 T01670167
KOAJ 241250Z AUTO 21005KT 1 1/4SM BR OVC002 17/17 A3026 RMK AO2 VIS 3/4V3
KOAJ 241242Z AUTO 20004KT 3/4SM BR OVC002 17/17 A3026 RMK AO2
KOAJ 241222Z AUTO 19005KT 1/2SM FG OVC002 17/17 A3026 RMK AO2
KOAJ 241156Z AUTO 20005KT 1/4SM FG OVC002 17/16 A3026 RMK AO2 SLP252 70001 T01670161 10167 20150 53001
KOAJ 241147Z AUTO 22003KT 1/2SM FG OVC002 17/16 A3026 RMK AO2 TSNO
KOAJ 241115Z AUTO 20006KT 3/4SM BR OVC002 16/16 A3026 RMK AO2
KOAJ 241108Z AUTO 19006KT 1 3/4SM BR OVC002 16/16 A3026 RMK AO2 TSNO
KOAJ 241056Z AUTO 19006KT 5SM BR BKN002 16/16 A3026 RMK AO2 SLP250 T01610161
KOAJ 241044Z AUTO 18006KT 10SM SCT004 16/16 A3026 RMK AO2
KOAJ 240956Z AUTO 21006KT 10SM BKN060 17/16 A3026 RMK AO2 SLP251 T01670161
KOAJ 240856Z AUTO 21005KT 10SM SCT065 16/16 A3026 RMK AO2 SLP251 T01610161 58015
KOAJ 240756Z AUTO 19005KT 10SM OVC070 16/16 A3028 RMK AO2 SLP257 T01560156
KOAJ 240738Z AUTO 20004KT 3SM BR FEW001 OVC070 16/16 A3029 RMK AO2
KOAJ 240721Z AUTO 19004KT 1 1/4SM BR SCT001 OVC070 16/16 A3029 RMK AO2
KOAJ 240714Z AUTO 18005KT 3/4SM BR FEW003 OVC070 16/16 A3029 RMK AO2
KOAJ 240656Z AUTO 18004KT 1/2SM FG BKN003 OVC070 16/16 A3030 RMK AO2 SLP263 T01560156
KOAJ 240622Z AUTO 19004KT 1/4SM FG OVC003 16/15 A3030 RMK AO2
KOAJ 240556Z AUTO 00000KT 1/2SM FG OVC003 15/15 A3030 RMK AO2 SLP266 T01500150 10189 20150 58009
KOAJ 240511Z AUTO 00000KT 1/4SM FG BKN003 16/16 A3031 RMK AO2
KOAJ 240456Z AUTO 00000KT 1/2SM FG VV004 16/16 A3031 RMK AO2 SLP269 T01610161 402440111
KOAJ 240453Z AUTO 00000KT 3/4SM BR VV003 16/16 A3031 RMK AO2 VIS 1/4V5 402440111
KOAJ 240450Z AUTO 00000KT 1 3/4SM BR SCT004 17/17 A3031 RMK AO2 VIS 1/2V5 402440111
KOAJ 240356Z AUTO 18004KT 7SM OVC004 17/17 A3033 RMK AO2 SLP274 T01720172